<?xml version="1.0" encoding="UTF-8" standalone="no" ?><gpx xmlns="http://www.topografix.com/GPX/1/1" xmlns:gpxx="http://www.garmin.com/xmlschemas/GpxExtensions/v3" xmlns:gpxtrkx="http://www.garmin.com/xmlschemas/TrackStatsExtension/v1" xmlns:wptx1="http://www.garmin.com/xmlschemas/WaypointExtension/v1" xmlns:gpxtpx="http://www.garmin.com/xmlschemas/TrackPointExtension/v1" creator="GPSMAP 65s" version="1.1" xmlns:xsi="http://www.w3.org/2001/XMLSchema-instance" xsi:schemaLocation="http://www.topografix.com/GPX/1/1 http://www.topografix.com/GPX/1/1/gpx.xsd http://www.garmin.com/xmlschemas/GpxExtensions/v3 http://www8.garmin.com/xmlschemas/GpxExtensionsv3.xsd http://www.garmin.com/xmlschemas/TrackStatsExtension/v1 http://www8.garmin.com/xmlschemas/TrackStatsExtension.xsd http://www.garmin.com/xmlschemas/WaypointExtension/v1 http://www8.garmin.com/xmlschemas/WaypointExtensionv1.xsd http://www.garmin.com/xmlschemas/TrackPointExtension/v1 http://www.garmin.com/xmlschemas/TrackPointExtensionv1.xsd"><metadata><link href="http://www.garmin.com"><text>Garmin International</text></link><time>2026-04-25T18:52:48Z</time></metadata><trk><name>2026-04-25 21:52:45</name><extensions><gpxx:TrackExtension><gpxx:DisplayColor>Cyan</gpxx:DisplayColor></gpxx:TrackExtension><gpxtrkx:TrackStatsExtension><gpxtrkx:Distance>3986.000</gpxtrkx:Distance><gpxtrkx:TotalElapsedTime>8992</gpxtrkx:TotalElapsedTime><gpxtrkx:MovingTime>3287</gpxtrkx:MovingTime><gpxtrkx:StoppedTime>5701</gpxtrkx:StoppedTime><gpxtrkx:MovingSpeed>1.213</gpxtrkx:MovingSpeed><gpxtrkx:MaxSpeed>1.638</gpxtrkx:MaxSpeed><gpxtrkx:MaxElevation>392.941</gpxtrkx:MaxElevation><gpxtrkx:MinElevation>-124.922</gpxtrkx:MinElevation><gpxtrkx:Ascent>249.000</gpxtrkx:Ascent><gpxtrkx:Descent>435.833</gpxtrkx:Descent><gpxtrkx:AvgAscentRate>0.036</gpxtrkx:AvgAscentRate><gpxtrkx:MaxAscentRate>3.576</gpxtrkx:MaxAscentRate><gpxtrkx:AvgDescentRate>0.069</gpxtrkx:AvgDescentRate><gpxtrkx:MaxDescentRate>-0.425</gpxtrkx:MaxDescentRate></gpxtrkx:TrackStatsExtension></extensions><trkseg><trkpt lat="59.0560592618" lon="29.9815332983"><ele>-124.92</ele><time>2026-04-25T16:22:56Z</time></trkpt><trkpt lat="59.0560597647" lon="29.9815241620"><ele>391.97</ele><time>2026-04-25T16:22:57Z</time></trkpt><trkpt lat="59.0560592618" lon="29.9815133493"><ele>391.97</ele><time>2026-04-25T16:22:58Z</time></trkpt><trkpt lat="59.0560554899" lon="29.9814631417"><ele>392.73</ele><time>2026-04-25T16:23:01Z</time></trkpt><trkpt lat="59.0560530592" lon="29.9814418517"><ele>392.51</ele><time>2026-04-25T16:23:02Z</time></trkpt><trkpt lat="59.0560487844" lon="29.9812558573"><ele>391.44</ele><time>2026-04-25T16:23:14Z</time></trkpt><trkpt lat="59.0560457669" lon="29.9811343197"><ele>390.52</ele><time>2026-04-25T16:23:20Z</time></trkpt><trkpt lat="59.0560230520" lon="29.9809817690"><ele>390.11</ele><time>2026-04-25T16:23:26Z</time></trkpt><trkpt lat="59.0560155921" lon="29.9809181504"><ele>388.59</ele><time>2026-04-25T16:23:30Z</time></trkpt><trkpt lat="59.0560062882" lon="29.9809053261"><ele>385.80</ele><time>2026-04-25T16:23:57Z</time></trkpt><trkpt lat="59.0560033545" lon="29.9808539450"><ele>383.18</ele><time>2026-04-25T16:24:16Z</time></trkpt><trkpt lat="59.0560096409" lon="29.9808722176"><ele>378.94</ele><time>2026-04-25T16:24:32Z</time></trkpt><trkpt lat="59.0560102277" lon="29.9808728881"><ele>378.77</ele><time>2026-04-25T16:24:33Z</time></trkpt><trkpt lat="59.0559971519" lon="29.9808055814"><ele>376.00</ele><time>2026-04-25T16:24:50Z</time></trkpt><trkpt lat="59.0560046956" lon="29.9808109459"><ele>372.92</ele><time>2026-04-25T16:25:09Z</time></trkpt><trkpt lat="59.0560043603" lon="29.9808206689"><ele>369.59</ele><time>2026-04-25T16:25:24Z</time></trkpt><trkpt lat="59.0559749398" lon="29.9807710480"><ele>367.38</ele><time>2026-04-25T16:25:39Z</time></trkpt><trkpt lat="59.0559361316" lon="29.9808294699"><ele>364.23</ele><time>2026-04-25T16:26:10Z</time></trkpt><trkpt lat="59.0558969881" lon="29.9808205850"><ele>362.96</ele><time>2026-04-25T16:26:24Z</time></trkpt><trkpt lat="59.0558386501" lon="29.9807772506"><ele>361.02</ele><time>2026-04-25T16:26:46Z</time></trkpt><trkpt lat="59.0557427611" lon="29.9807422981"><ele>359.90</ele><time>2026-04-25T16:26:58Z</time></trkpt><trkpt lat="59.0556166973" lon="29.9806917552"><ele>358.82</ele><time>2026-04-25T16:27:13Z</time></trkpt><trkpt lat="59.0555079840" lon="29.9806414638"><ele>357.88</ele><time>2026-04-25T16:27:27Z</time></trkpt><trkpt lat="59.0554477181" lon="29.9805207644"><ele>356.97</ele><time>2026-04-25T16:27:46Z</time></trkpt><trkpt lat="59.0553840995" lon="29.9804604985"><ele>354.33</ele><time>2026-04-25T16:28:16Z</time></trkpt><trkpt lat="59.0552749671" lon="29.9805164896"><ele>352.29</ele><time>2026-04-25T16:28:30Z</time></trkpt><trkpt lat="59.0552848577" lon="29.9805215187"><ele>349.25</ele><time>2026-04-25T16:28:48Z</time></trkpt><trkpt lat="59.0552050620" lon="29.9805052578"><ele>347.18</ele><time>2026-04-25T16:29:00Z</time></trkpt><trkpt lat="59.0551007073" lon="29.9805321638"><ele>345.63</ele><time>2026-04-25T16:29:13Z</time></trkpt><trkpt lat="59.0549952630" lon="29.9804876558"><ele>344.41</ele><time>2026-04-25T16:29:28Z</time></trkpt><trkpt lat="59.0548832808" lon="29.9804695509"><ele>343.02</ele><time>2026-04-25T16:29:44Z</time></trkpt><trkpt lat="59.0547783393" lon="29.9804360233"><ele>341.37</ele><time>2026-04-25T16:30:07Z</time></trkpt><trkpt lat="59.0547288861" lon="29.9803407211"><ele>337.62</ele><time>2026-04-25T16:30:26Z</time></trkpt><trkpt lat="59.0547194984" lon="29.9803363625"><ele>339.09</ele><time>2026-04-25T16:30:29Z</time></trkpt><trkpt lat="59.0546188317" lon="29.9802247994"><ele>337.60</ele><time>2026-04-25T16:30:51Z</time></trkpt><trkpt lat="59.0545487590" lon="29.9801629409"><ele>335.33</ele><time>2026-04-25T16:31:16Z</time></trkpt><trkpt lat="59.0545006469" lon="29.9801228754"><ele>333.25</ele><time>2026-04-25T16:31:25Z</time></trkpt><trkpt lat="59.0544663649" lon="29.9801188521"><ele>334.06</ele><time>2026-04-25T16:31:29Z</time></trkpt><trkpt lat="59.0544203483" lon="29.9801182654"><ele>332.84</ele><time>2026-04-25T16:31:42Z</time></trkpt><trkpt lat="59.0543962922" lon="29.9800750986"><ele>329.70</ele><time>2026-04-25T16:32:04Z</time></trkpt><trkpt lat="59.0543946996" lon="29.9800804630"><ele>329.56</ele><time>2026-04-25T16:32:05Z</time></trkpt><trkpt lat="59.0543664526" lon="29.9800838996"><ele>326.48</ele><time>2026-04-25T16:32:25Z</time></trkpt><trkpt lat="59.0543037560" lon="29.9800772779"><ele>323.35</ele><time>2026-04-25T16:32:54Z</time></trkpt><trkpt lat="59.0542049333" lon="29.9800423253"><ele>321.12</ele><time>2026-04-25T16:33:22Z</time></trkpt><trkpt lat="59.0540756844" lon="29.9800440855"><ele>319.25</ele><time>2026-04-25T16:33:50Z</time></trkpt><trkpt lat="59.0539981518" lon="29.9800223764"><ele>317.15</ele><time>2026-04-25T16:34:12Z</time></trkpt><trkpt lat="59.0539085492" lon="29.9800482765"><ele>314.24</ele><time>2026-04-25T16:34:42Z</time></trkpt><trkpt lat="59.0537997521" lon="29.9800186884"><ele>312.28</ele><time>2026-04-25T16:35:06Z</time></trkpt><trkpt lat="59.0537330322" lon="29.9799403176"><ele>310.28</ele><time>2026-04-25T16:35:30Z</time></trkpt><trkpt lat="59.0536459442" lon="29.9798913673"><ele>308.46</ele><time>2026-04-25T16:35:53Z</time></trkpt><trkpt lat="59.0535677411" lon="29.9798521399"><ele>306.47</ele><time>2026-04-25T16:36:11Z</time></trkpt><trkpt lat="59.0535377339" lon="29.9797842465"><ele>303.89</ele><time>2026-04-25T16:36:32Z</time></trkpt><trkpt lat="59.0535188746" lon="29.9798089731"><ele>300.93</ele><time>2026-04-25T16:36:54Z</time></trkpt><trkpt lat="59.0534963273" lon="29.9798371363"><ele>298.25</ele><time>2026-04-25T16:37:16Z</time></trkpt><trkpt lat="59.0535010211" lon="29.9797918741"><ele>295.16</ele><time>2026-04-25T16:37:36Z</time></trkpt><trkpt lat="59.0535013564" lon="29.9798279162"><ele>291.62</ele><time>2026-04-25T16:37:50Z</time></trkpt><trkpt lat="59.0535011888" lon="29.9798296764"><ele>291.45</ele><time>2026-04-25T16:37:51Z</time></trkpt><trkpt lat="59.0534820780" lon="29.9798383936"><ele>288.37</ele><time>2026-04-25T16:38:05Z</time></trkpt><trkpt lat="59.0534430183" lon="29.9798365496"><ele>284.90</ele><time>2026-04-25T16:38:12Z</time></trkpt><trkpt lat="59.0534291882" lon="29.9798312690"><ele>285.75</ele><time>2026-04-25T16:38:13Z</time></trkpt><trkpt lat="59.0534001868" lon="29.9798049498"><ele>286.70</ele><time>2026-04-25T16:38:15Z</time></trkpt><trkpt lat="59.0533190500" lon="29.9797798879"><ele>284.22</ele><time>2026-04-25T16:38:31Z</time></trkpt><trkpt lat="59.0532803256" lon="29.9797513895"><ele>282.18</ele><time>2026-04-25T16:38:44Z</time></trkpt><trkpt lat="59.0531810839" lon="29.9797680695"><ele>280.93</ele><time>2026-04-25T16:38:59Z</time></trkpt><trkpt lat="59.0530544333" lon="29.9797371402"><ele>278.87</ele><time>2026-04-25T16:39:14Z</time></trkpt><trkpt lat="59.0529391821" lon="29.9797218852"><ele>276.41</ele><time>2026-04-25T16:39:30Z</time></trkpt><trkpt lat="59.0528917406" lon="29.9796874356"><ele>274.24</ele><time>2026-04-25T16:39:45Z</time></trkpt><trkpt lat="59.0528363362" lon="29.9796415865"><ele>272.41</ele><time>2026-04-25T16:40:00Z</time></trkpt><trkpt lat="59.0527831949" lon="29.9795841705"><ele>270.71</ele><time>2026-04-25T16:40:12Z</time></trkpt><trkpt lat="59.0527531877" lon="29.9796089809"><ele>267.52</ele><time>2026-04-25T16:40:25Z</time></trkpt><trkpt lat="59.0526731405" lon="29.9796172790"><ele>267.17</ele><time>2026-04-25T16:40:39Z</time></trkpt><trkpt lat="59.0525613260" lon="29.9795541633"><ele>265.29</ele><time>2026-04-25T16:41:04Z</time></trkpt><trkpt lat="59.0525121242" lon="29.9795037881"><ele>261.25</ele><time>2026-04-25T16:41:26Z</time></trkpt><trkpt lat="59.0525128786" lon="29.9795040395"><ele>261.25</ele><time>2026-04-25T16:41:27Z</time></trkpt><trkpt lat="59.0525097772" lon="29.9795486312"><ele>258.17</ele><time>2026-04-25T16:41:42Z</time></trkpt><trkpt lat="59.0525084361" lon="29.9795444403"><ele>257.17</ele><time>2026-04-25T16:41:44Z</time></trkpt><trkpt lat="59.0524772555" lon="29.9794291891"><ele>254.38</ele><time>2026-04-25T16:42:06Z</time></trkpt><trkpt lat="59.0523639321" lon="29.9794186279"><ele>252.85</ele><time>2026-04-25T16:42:25Z</time></trkpt><trkpt lat="59.0522596613" lon="29.9793903809"><ele>249.97</ele><time>2026-04-25T16:42:45Z</time></trkpt><trkpt lat="59.0521997306" lon="29.9794153590"><ele>249.19</ele><time>2026-04-25T16:43:08Z</time></trkpt><trkpt lat="59.0520803723" lon="29.9792893790"><ele>248.23</ele><time>2026-04-25T16:43:25Z</time></trkpt><trkpt lat="59.0519889258" lon="29.9792008661"><ele>246.78</ele><time>2026-04-25T16:43:41Z</time></trkpt><trkpt lat="59.0519370418" lon="29.9791383371"><ele>245.19</ele><time>2026-04-25T16:43:57Z</time></trkpt><trkpt lat="59.0518923663" lon="29.9791151192"><ele>242.50</ele><time>2026-04-25T16:44:15Z</time></trkpt><trkpt lat="59.0518028475" lon="29.9791034684"><ele>242.04</ele><time>2026-04-25T16:44:28Z</time></trkpt><trkpt lat="59.0517522208" lon="29.9791039713"><ele>239.95</ele><time>2026-04-25T16:44:33Z</time></trkpt><trkpt lat="59.0517351218" lon="29.9791106768"><ele>239.06</ele><time>2026-04-25T16:44:35Z</time></trkpt><trkpt lat="59.0516779572" lon="29.9791242555"><ele>236.89</ele><time>2026-04-25T16:44:44Z</time></trkpt><trkpt lat="59.0515914559" lon="29.9791065697"><ele>235.82</ele><time>2026-04-25T16:44:57Z</time></trkpt><trkpt lat="59.0515059605" lon="29.9791240878"><ele>233.33</ele><time>2026-04-25T16:45:12Z</time></trkpt><trkpt lat="59.0514890291" lon="29.9791274406"><ele>229.57</ele><time>2026-04-25T16:45:29Z</time></trkpt><trkpt lat="59.0514850896" lon="29.9791116826"><ele>226.39</ele><time>2026-04-25T16:45:41Z</time></trkpt><trkpt lat="59.0514741093" lon="29.9791242555"><ele>223.57</ele><time>2026-04-25T16:45:53Z</time></trkpt><trkpt lat="59.0513874404" lon="29.9791228306"><ele>220.66</ele><time>2026-04-25T16:46:14Z</time></trkpt><trkpt lat="59.0513836686" lon="29.9791207351"><ele>220.86</ele><time>2026-04-25T16:46:15Z</time></trkpt><trkpt lat="59.0513158590" lon="29.9791107606"><ele>219.28</ele><time>2026-04-25T16:46:31Z</time></trkpt><trkpt lat="59.0512053855" lon="29.9790560268"><ele>217.98</ele><time>2026-04-25T16:46:53Z</time></trkpt><trkpt lat="59.0511341393" lon="29.9790297914"><ele>217.64</ele><time>2026-04-25T16:47:13Z</time></trkpt><trkpt lat="59.0510539245" lon="29.9790561944"><ele>217.36</ele><time>2026-04-25T16:47:32Z</time></trkpt><trkpt lat="59.0509778168" lon="29.9788922444"><ele>216.89</ele><time>2026-04-25T16:47:54Z</time></trkpt><trkpt lat="59.0509026311" lon="29.9787049927"><ele>216.91</ele><time>2026-04-25T16:48:09Z</time></trkpt><trkpt lat="59.0508003719" lon="29.9785501789"><ele>216.26</ele><time>2026-04-25T16:48:23Z</time></trkpt><trkpt lat="59.0507628210" lon="29.9784861412"><ele>213.54</ele><time>2026-04-25T16:48:48Z</time></trkpt><trkpt lat="59.0507379267" lon="29.9784630910"><ele>213.28</ele><time>2026-04-25T16:49:04Z</time></trkpt><trkpt lat="59.0507496614" lon="29.9784794357"><ele>210.14</ele><time>2026-04-25T16:49:15Z</time></trkpt><trkpt lat="59.0507662576" lon="29.9784552958"><ele>206.68</ele><time>2026-04-25T16:49:39Z</time></trkpt><trkpt lat="59.0507381782" lon="29.9784141406"><ele>203.56</ele><time>2026-04-25T16:49:50Z</time></trkpt><trkpt lat="59.0507267788" lon="29.9784125481"><ele>200.50</ele><time>2026-04-25T16:50:10Z</time></trkpt><trkpt lat="59.0507219173" lon="29.9784095306"><ele>197.61</ele><time>2026-04-25T16:50:14Z</time></trkpt><trkpt lat="59.0507155471" lon="29.9784065969"><ele>198.01</ele><time>2026-04-25T16:50:24Z</time></trkpt><trkpt lat="59.0507009625" lon="29.9783988856"><ele>194.90</ele><time>2026-04-25T16:50:38Z</time></trkpt><trkpt lat="59.0506629087" lon="29.9784208462"><ele>191.53</ele><time>2026-04-25T16:50:49Z</time></trkpt><trkpt lat="59.0506581310" lon="29.9784188345"><ele>191.79</ele><time>2026-04-25T16:50:50Z</time></trkpt><trkpt lat="59.0505833644" lon="29.9783915933"><ele>188.86</ele><time>2026-04-25T16:51:02Z</time></trkpt><trkpt lat="59.0505096875" lon="29.9784134701"><ele>185.55</ele><time>2026-04-25T16:51:15Z</time></trkpt><trkpt lat="59.0505091846" lon="29.9785182439"><ele>182.13</ele><time>2026-04-25T16:51:31Z</time></trkpt><trkpt lat="59.0504946839" lon="29.9786260352"><ele>179.04</ele><time>2026-04-25T16:51:48Z</time></trkpt><trkpt lat="59.0504809376" lon="29.9787532724"><ele>176.53</ele><time>2026-04-25T16:52:14Z</time></trkpt><trkpt lat="59.0504712984" lon="29.9788515922"><ele>176.18</ele><time>2026-04-25T16:52:33Z</time></trkpt><trkpt lat="59.0504662693" lon="29.9788849521"><ele>174.92</ele><time>2026-04-25T16:52:54Z</time></trkpt><trkpt lat="59.0504653472" lon="29.9789087567"><ele>174.03</ele><time>2026-04-25T16:53:31Z</time></trkpt><trkpt lat="59.0504678618" lon="29.9789073318"><ele>173.74</ele><time>2026-04-25T16:53:32Z</time></trkpt><trkpt lat="59.0504815243" lon="29.9788663443"><ele>170.73</ele><time>2026-04-25T16:53:57Z</time></trkpt><trkpt lat="59.0504676104" lon="29.9788837787"><ele>168.71</ele><time>2026-04-25T16:54:20Z</time></trkpt><trkpt lat="59.0504643414" lon="29.9789071642"><ele>165.27</ele><time>2026-04-25T16:54:42Z</time></trkpt><trkpt lat="59.0504485834" lon="29.9789472297"><ele>163.63</ele><time>2026-04-25T16:55:06Z</time></trkpt><trkpt lat="59.0504386928" lon="29.9789292924"><ele>160.49</ele><time>2026-04-25T16:55:23Z</time></trkpt><trkpt lat="59.0504169837" lon="29.9788740557"><ele>157.94</ele><time>2026-04-25T16:55:46Z</time></trkpt><trkpt lat="59.0504242759" lon="29.9789364170"><ele>157.55</ele><time>2026-04-25T16:55:58Z</time></trkpt><trkpt lat="59.0504345857" lon="29.9789556954"><ele>155.56</ele><time>2026-04-25T16:56:10Z</time></trkpt><trkpt lat="59.0504526906" lon="29.9789273646"><ele>154.44</ele><time>2026-04-25T16:56:27Z</time></trkpt><trkpt lat="59.0504438896" lon="29.9789410271"><ele>151.19</ele><time>2026-04-25T16:56:37Z</time></trkpt><trkpt lat="59.0504419617" lon="29.9789379258"><ele>148.05</ele><time>2026-04-25T16:56:48Z</time></trkpt><trkpt lat="59.0504635870" lon="29.9788520951"><ele>146.23</ele><time>2026-04-25T16:57:07Z</time></trkpt><trkpt lat="59.0504767466" lon="29.9787543621"><ele>143.72</ele><time>2026-04-25T16:57:38Z</time></trkpt><trkpt lat="59.0505182371" lon="29.9785738997"><ele>142.71</ele><time>2026-04-25T16:58:15Z</time></trkpt><trkpt lat="59.0504727233" lon="29.9784930982"><ele>140.82</ele><time>2026-04-25T16:58:48Z</time></trkpt><trkpt lat="59.0504579712" lon="29.9784215167"><ele>139.51</ele><time>2026-04-25T16:59:07Z</time></trkpt><trkpt lat="59.0504126251" lon="29.9783735722"><ele>138.80</ele><time>2026-04-25T16:59:30Z</time></trkpt><trkpt lat="59.0503177419" lon="29.9783477560"><ele>139.31</ele><time>2026-04-25T16:59:55Z</time></trkpt><trkpt lat="59.0502581466" lon="29.9783687945"><ele>139.88</ele><time>2026-04-25T17:00:15Z</time></trkpt><trkpt lat="59.0502304863" lon="29.9784589838"><ele>141.87</ele><time>2026-04-25T17:01:01Z</time></trkpt><trkpt lat="59.0502159856" lon="29.9785477482"><ele>142.85</ele><time>2026-04-25T17:01:16Z</time></trkpt><trkpt lat="59.0501760878" lon="29.9785777554"><ele>143.69</ele><time>2026-04-25T17:01:39Z</time></trkpt><trkpt lat="59.0500803664" lon="29.9786378536"><ele>144.85</ele><time>2026-04-25T17:01:56Z</time></trkpt><trkpt lat="59.0499969665" lon="29.9786363449"><ele>146.09</ele><time>2026-04-25T17:02:13Z</time></trkpt><trkpt lat="59.0499645285" lon="29.9787423760"><ele>146.71</ele><time>2026-04-25T17:02:27Z</time></trkpt><trkpt lat="59.0499303304" lon="29.9788093474"><ele>147.82</ele><time>2026-04-25T17:02:39Z</time></trkpt><trkpt lat="59.0498651192" lon="29.9787903205"><ele>148.44</ele><time>2026-04-25T17:02:53Z</time></trkpt><trkpt lat="59.0497916099" lon="29.9787847884"><ele>150.03</ele><time>2026-04-25T17:03:07Z</time></trkpt><trkpt lat="59.0497511253" lon="29.9787608162"><ele>150.40</ele><time>2026-04-25T17:03:21Z</time></trkpt><trkpt lat="59.0496759396" lon="29.9787177332"><ele>149.90</ele><time>2026-04-25T17:03:36Z</time></trkpt><trkpt lat="59.0496073756" lon="29.9787388556"><ele>150.49</ele><time>2026-04-25T17:03:47Z</time></trkpt><trkpt lat="59.0495243110" lon="29.9787973613"><ele>150.29</ele><time>2026-04-25T17:04:03Z</time></trkpt><trkpt lat="59.0494787972" lon="29.9787177332"><ele>149.98</ele><time>2026-04-25T17:04:17Z</time></trkpt><trkpt lat="59.0494344570" lon="29.9786362611"><ele>150.25</ele><time>2026-04-25T17:04:30Z</time></trkpt><trkpt lat="59.0494355466" lon="29.9786539469"><ele>148.42</ele><time>2026-04-25T17:04:48Z</time></trkpt><trkpt lat="59.0494320262" lon="29.9787190743"><ele>147.82</ele><time>2026-04-25T17:05:08Z</time></trkpt><trkpt lat="59.0494446829" lon="29.9786956888"><ele>144.33</ele><time>2026-04-25T17:05:35Z</time></trkpt><trkpt lat="59.0494377259" lon="29.9786295556"><ele>141.93</ele><time>2026-04-25T17:06:02Z</time></trkpt><trkpt lat="59.0493841656" lon="29.9786276277"><ele>142.19</ele><time>2026-04-25T17:06:16Z</time></trkpt><trkpt lat="59.0493166912" lon="29.9786087684"><ele>141.66</ele><time>2026-04-25T17:06:35Z</time></trkpt><trkpt lat="59.0492422599" lon="29.9785555433"><ele>142.03</ele><time>2026-04-25T17:06:59Z</time></trkpt><trkpt lat="59.0491925552" lon="29.9785625841"><ele>142.52</ele><time>2026-04-25T17:07:28Z</time></trkpt><trkpt lat="59.0491174534" lon="29.9786681961"><ele>143.83</ele><time>2026-04-25T17:07:45Z</time></trkpt><trkpt lat="59.0490523260" lon="29.9786803499"><ele>144.93</ele><time>2026-04-25T17:07:58Z</time></trkpt><trkpt lat="59.0489913896" lon="29.9786490854"><ele>146.02</ele><time>2026-04-25T17:08:11Z</time></trkpt><trkpt lat="59.0489668306" lon="29.9786556233"><ele>146.16</ele><time>2026-04-25T17:08:15Z</time></trkpt><trkpt lat="59.0489287768" lon="29.9786907434"><ele>147.31</ele><time>2026-04-25T17:08:30Z</time></trkpt><trkpt lat="59.0488427784" lon="29.9786395300"><ele>148.54</ele><time>2026-04-25T17:08:42Z</time></trkpt><trkpt lat="59.0487571992" lon="29.9786083493"><ele>149.32</ele><time>2026-04-25T17:08:54Z</time></trkpt><trkpt lat="59.0486805048" lon="29.9786096066"><ele>150.66</ele><time>2026-04-25T17:09:08Z</time></trkpt><trkpt lat="59.0486184787" lon="29.9785293918"><ele>152.01</ele><time>2026-04-25T17:09:21Z</time></trkpt><trkpt lat="59.0485588834" lon="29.9785278831"><ele>153.46</ele><time>2026-04-25T17:09:29Z</time></trkpt><trkpt lat="59.0484934207" lon="29.9785296433"><ele>152.46</ele><time>2026-04-25T17:09:44Z</time></trkpt><trkpt lat="59.0484057460" lon="29.9785074312"><ele>153.35</ele><time>2026-04-25T17:09:59Z</time></trkpt><trkpt lat="59.0483874734" lon="29.9784749933"><ele>154.24</ele><time>2026-04-25T17:10:09Z</time></trkpt><trkpt lat="59.0483173169" lon="29.9784614146"><ele>154.49</ele><time>2026-04-25T17:10:20Z</time></trkpt><trkpt lat="59.0483100247" lon="29.9784474168"><ele>155.60</ele><time>2026-04-25T17:10:51Z</time></trkpt><trkpt lat="59.0482569672" lon="29.9784402922"><ele>156.03</ele><time>2026-04-25T17:11:12Z</time></trkpt><trkpt lat="59.0481954440" lon="29.9783720635"><ele>156.45</ele><time>2026-04-25T17:11:28Z</time></trkpt><trkpt lat="59.0481447335" lon="29.9783031642"><ele>152.92</ele><time>2026-04-25T17:11:35Z</time></trkpt><trkpt lat="59.0481412970" lon="29.9782986380"><ele>152.84</ele><time>2026-04-25T17:11:36Z</time></trkpt><trkpt lat="59.0481326636" lon="29.9783093669"><ele>156.60</ele><time>2026-04-25T17:11:45Z</time></trkpt><trkpt lat="59.0481322445" lon="29.9783043377"><ele>156.43</ele><time>2026-04-25T17:11:46Z</time></trkpt><trkpt lat="59.0480756667" lon="29.9782445747"><ele>155.88</ele><time>2026-04-25T17:12:03Z</time></trkpt><trkpt lat="59.0480488446" lon="29.9782237876"><ele>155.97</ele><time>2026-04-25T17:12:09Z</time></trkpt><trkpt lat="59.0479782689" lon="29.9782487657"><ele>156.32</ele><time>2026-04-25T17:12:24Z</time></trkpt><trkpt lat="59.0479220264" lon="29.9782280624"><ele>156.36</ele><time>2026-04-25T17:12:33Z</time></trkpt><trkpt lat="59.0478585754" lon="29.9782415573"><ele>156.66</ele><time>2026-04-25T17:12:45Z</time></trkpt><trkpt lat="59.0478072781" lon="29.9782449938"><ele>157.00</ele><time>2026-04-25T17:12:56Z</time></trkpt><trkpt lat="59.0477641951" lon="29.9781752564"><ele>156.68</ele><time>2026-04-25T17:13:09Z</time></trkpt><trkpt lat="59.0476804599" lon="29.9781549722"><ele>156.73</ele><time>2026-04-25T17:13:24Z</time></trkpt><trkpt lat="59.0476390533" lon="29.9781573191"><ele>158.95</ele><time>2026-04-25T17:13:40Z</time></trkpt><trkpt lat="59.0476364549" lon="29.9781620968"><ele>159.12</ele><time>2026-04-25T17:13:41Z</time></trkpt><trkpt lat="59.0476158354" lon="29.9781644437"><ele>155.75</ele><time>2026-04-25T17:13:54Z</time></trkpt><trkpt lat="59.0475467686" lon="29.9781772681"><ele>156.54</ele><time>2026-04-25T17:14:06Z</time></trkpt><trkpt lat="59.0475425776" lon="29.9781758431"><ele>156.62</ele><time>2026-04-25T17:14:07Z</time></trkpt><trkpt lat="59.0474964771" lon="29.9781576544"><ele>156.48</ele><time>2026-04-25T17:14:16Z</time></trkpt><trkpt lat="59.0474488679" lon="29.9780783616"><ele>155.40</ele><time>2026-04-25T17:14:30Z</time></trkpt><trkpt lat="59.0473871771" lon="29.9780416489"><ele>153.46</ele><time>2026-04-25T17:14:47Z</time></trkpt><trkpt lat="59.0472937189" lon="29.9779844005"><ele>152.28</ele><time>2026-04-25T17:15:01Z</time></trkpt><trkpt lat="59.0472254902" lon="29.9779641163"><ele>150.57</ele><time>2026-04-25T17:15:15Z</time></trkpt><trkpt lat="59.0472226404" lon="29.9779813830"><ele>147.91</ele><time>2026-04-25T17:15:36Z</time></trkpt><trkpt lat="59.0472334530" lon="29.9779889267"><ele>145.53</ele><time>2026-04-25T17:16:06Z</time></trkpt><trkpt lat="59.0471876878" lon="29.9779269844"><ele>143.84</ele><time>2026-04-25T17:16:26Z</time></trkpt><trkpt lat="59.0471446887" lon="29.9779422395"><ele>143.85</ele><time>2026-04-25T17:16:45Z</time></trkpt><trkpt lat="59.0470389929" lon="29.9779133219"><ele>143.03</ele><time>2026-04-25T17:16:59Z</time></trkpt><trkpt lat="59.0470122546" lon="29.9779058620"><ele>142.93</ele><time>2026-04-25T17:17:02Z</time></trkpt><trkpt lat="59.0468986798" lon="29.9779036827"><ele>142.11</ele><time>2026-04-25T17:17:19Z</time></trkpt><trkpt lat="59.0468473826" lon="29.9778921995"><ele>142.31</ele><time>2026-04-25T17:17:32Z</time></trkpt><trkpt lat="59.0468387492" lon="29.9778912775"><ele>141.83</ele><time>2026-04-25T17:17:34Z</time></trkpt><trkpt lat="59.0467787348" lon="29.9779027607"><ele>140.93</ele><time>2026-04-25T17:17:45Z</time></trkpt><trkpt lat="59.0467248391" lon="29.9778676406"><ele>141.73</ele><time>2026-04-25T17:17:58Z</time></trkpt><trkpt lat="59.0466415230" lon="29.9778721668"><ele>139.22</ele><time>2026-04-25T17:18:10Z</time></trkpt><trkpt lat="59.0465655830" lon="29.9778298382"><ele>138.99</ele><time>2026-04-25T17:18:23Z</time></trkpt><trkpt lat="59.0464721248" lon="29.9778793752"><ele>138.71</ele><time>2026-04-25T17:18:35Z</time></trkpt><trkpt lat="59.0464348253" lon="29.9778428301"><ele>138.84</ele><time>2026-04-25T17:18:42Z</time></trkpt><trkpt lat="59.0463887248" lon="29.9778092187"><ele>138.91</ele><time>2026-04-25T17:18:54Z</time></trkpt><trkpt lat="59.0463315602" lon="29.9777545687"><ele>139.34</ele><time>2026-04-25T17:19:11Z</time></trkpt><trkpt lat="59.0462619904" lon="29.9777679797"><ele>138.91</ele><time>2026-04-25T17:19:21Z</time></trkpt><trkpt lat="59.0461669397" lon="29.9777383916"><ele>139.45</ele><time>2026-04-25T17:19:34Z</time></trkpt><trkpt lat="59.0461045783" lon="29.9776782934"><ele>139.77</ele><time>2026-04-25T17:19:49Z</time></trkpt><trkpt lat="59.0460341703" lon="29.9776289240"><ele>139.79</ele><time>2026-04-25T17:20:06Z</time></trkpt><trkpt lat="59.0459402930" lon="29.9776357971"><ele>139.57</ele><time>2026-04-25T17:20:24Z</time></trkpt><trkpt lat="59.0458638500" lon="29.9775995873"><ele>139.48</ele><time>2026-04-25T17:20:37Z</time></trkpt><trkpt lat="59.0458398778" lon="29.9775772914"><ele>138.32</ele><time>2026-04-25T17:20:58Z</time></trkpt><trkpt lat="59.0458517801" lon="29.9776129983"><ele>135.19</ele><time>2026-04-25T17:21:21Z</time></trkpt><trkpt lat="59.0458286460" lon="29.9776243977"><ele>134.36</ele><time>2026-04-25T17:21:27Z</time></trkpt><trkpt lat="59.0457808692" lon="29.9775545765"><ele>133.25</ele><time>2026-04-25T17:21:43Z</time></trkpt><trkpt lat="59.0456921887" lon="29.9774932209"><ele>132.23</ele><time>2026-04-25T17:21:58Z</time></trkpt><trkpt lat="59.0456186794" lon="29.9774138443"><ele>131.99</ele><time>2026-04-25T17:22:11Z</time></trkpt><trkpt lat="59.0455530491" lon="29.9773193803"><ele>132.23</ele><time>2026-04-25T17:22:25Z</time></trkpt><trkpt lat="59.0455308370" lon="29.9773012754"><ele>132.36</ele><time>2026-04-25T17:22:37Z</time></trkpt><trkpt lat="59.0455265623" lon="29.9772918876"><ele>132.91</ele><time>2026-04-25T17:23:07Z</time></trkpt><trkpt lat="59.0455118939" lon="29.9773033708"><ele>134.58</ele><time>2026-04-25T17:24:18Z</time></trkpt><trkpt lat="59.0455042664" lon="29.9773211405"><ele>136.06</ele><time>2026-04-25T17:24:53Z</time></trkpt><trkpt lat="59.0455111396" lon="29.9773120880"><ele>136.84</ele><time>2026-04-25T17:25:13Z</time></trkpt><trkpt lat="59.0455135703" lon="29.9772959948"><ele>136.85</ele><time>2026-04-25T17:25:37Z</time></trkpt><trkpt lat="59.0454868320" lon="29.9773002695"><ele>138.14</ele><time>2026-04-25T17:25:41Z</time></trkpt><trkpt lat="59.0454494487" lon="29.9773010239"><ele>136.91</ele><time>2026-04-25T17:25:46Z</time></trkpt><trkpt lat="59.0454020910" lon="29.9773240741"><ele>136.01</ele><time>2026-04-25T17:26:00Z</time></trkpt><trkpt lat="59.0454034321" lon="29.9773192964"><ele>132.73</ele><time>2026-04-25T17:26:12Z</time></trkpt><trkpt lat="59.0453986544" lon="29.9773198832"><ele>133.05</ele><time>2026-04-25T17:26:15Z</time></trkpt><trkpt lat="59.0454066172" lon="29.9772570189"><ele>135.22</ele><time>2026-04-25T17:26:18Z</time></trkpt><trkpt lat="59.0454214532" lon="29.9772739504"><ele>134.49</ele><time>2026-04-25T17:26:31Z</time></trkpt><trkpt lat="59.0454127360" lon="29.9773115851"><ele>133.26</ele><time>2026-04-25T17:27:06Z</time></trkpt><trkpt lat="59.0453484468" lon="29.9773304444"><ele>132.78</ele><time>2026-04-25T17:27:25Z</time></trkpt><trkpt lat="59.0452565812" lon="29.9773048796"><ele>132.44</ele><time>2026-04-25T17:27:41Z</time></trkpt><trkpt lat="59.0451729298" lon="29.9772789795"><ele>132.68</ele><time>2026-04-25T17:27:59Z</time></trkpt><trkpt lat="59.0451087244" lon="29.9772414286"><ele>132.91</ele><time>2026-04-25T17:28:12Z</time></trkpt><trkpt lat="59.0450533200" lon="29.9772341363"><ele>133.02</ele><time>2026-04-25T17:28:27Z</time></trkpt><trkpt lat="59.0449453611" lon="29.9772131816"><ele>133.89</ele><time>2026-04-25T17:28:45Z</time></trkpt><trkpt lat="59.0448365640" lon="29.9771597888"><ele>134.46</ele><time>2026-04-25T17:28:59Z</time></trkpt><trkpt lat="59.0447403397" lon="29.9771193881"><ele>135.33</ele><time>2026-04-25T17:29:13Z</time></trkpt><trkpt lat="59.0446794871" lon="29.9771126825"><ele>135.92</ele><time>2026-04-25T17:29:27Z</time></trkpt><trkpt lat="59.0445871186" lon="29.9771140236"><ele>136.54</ele><time>2026-04-25T17:29:40Z</time></trkpt><trkpt lat="59.0445272718" lon="29.9770875368"><ele>137.32</ele><time>2026-04-25T17:29:52Z</time></trkpt><trkpt lat="59.0444637369" lon="29.9770615529"><ele>138.18</ele><time>2026-04-25T17:30:10Z</time></trkpt><trkpt lat="59.0444153734" lon="29.9771100841"><ele>139.07</ele><time>2026-04-25T17:30:28Z</time></trkpt><trkpt lat="59.0443128627" lon="29.9770550989"><ele>139.72</ele><time>2026-04-25T17:30:41Z</time></trkpt><trkpt lat="59.0442515910" lon="29.9769928213"><ele>139.63</ele><time>2026-04-25T17:30:53Z</time></trkpt><trkpt lat="59.0442300495" lon="29.9770058971"><ele>139.55</ele><time>2026-04-25T17:30:59Z</time></trkpt><trkpt lat="59.0442092624" lon="29.9770197272"><ele>138.84</ele><time>2026-04-25T17:31:17Z</time></trkpt><trkpt lat="59.0442217514" lon="29.9769947492"><ele>136.20</ele><time>2026-04-25T17:31:31Z</time></trkpt><trkpt lat="59.0441559535" lon="29.9770008679"><ele>134.32</ele><time>2026-04-25T17:31:57Z</time></trkpt><trkpt lat="59.0440446418" lon="29.9769664183"><ele>133.35</ele><time>2026-04-25T17:32:14Z</time></trkpt><trkpt lat="59.0439920872" lon="29.9769299570"><ele>133.18</ele><time>2026-04-25T17:32:28Z</time></trkpt><trkpt lat="59.0439844597" lon="29.9769283645"><ele>133.18</ele><time>2026-04-25T17:32:30Z</time></trkpt><trkpt lat="59.0438893251" lon="29.9768924061"><ele>133.26</ele><time>2026-04-25T17:32:41Z</time></trkpt><trkpt lat="59.0438236948" lon="29.9769099243"><ele>132.88</ele><time>2026-04-25T17:32:46Z</time></trkpt><trkpt lat="59.0437529515" lon="29.9768813420"><ele>132.47</ele><time>2026-04-25T17:32:55Z</time></trkpt><trkpt lat="59.0436705574" lon="29.9768485688"><ele>133.10</ele><time>2026-04-25T17:33:08Z</time></trkpt><trkpt lat="59.0436009876" lon="29.9768559448"><ele>133.24</ele><time>2026-04-25T17:33:18Z</time></trkpt><trkpt lat="59.0435486846" lon="29.9768430367"><ele>135.52</ele><time>2026-04-25T17:33:34Z</time></trkpt><trkpt lat="59.0434878320" lon="29.9768185616"><ele>134.25</ele><time>2026-04-25T17:33:47Z</time></trkpt><trkpt lat="59.0434187651" lon="29.9768060725"><ele>134.00</ele><time>2026-04-25T17:33:58Z</time></trkpt><trkpt lat="59.0433314256" lon="29.9768090062"><ele>134.47</ele><time>2026-04-25T17:34:12Z</time></trkpt><trkpt lat="59.0432603471" lon="29.9767074175"><ele>133.49</ele><time>2026-04-25T17:34:31Z</time></trkpt><trkpt lat="59.0432365425" lon="29.9767059926"><ele>133.01</ele><time>2026-04-25T17:35:03Z</time></trkpt><trkpt lat="59.0432382189" lon="29.9766951799"><ele>130.29</ele><time>2026-04-25T17:35:06Z</time></trkpt><trkpt lat="59.0432463493" lon="29.9766699504"><ele>127.10</ele><time>2026-04-25T17:35:24Z</time></trkpt><trkpt lat="59.0431408212" lon="29.9766597245"><ele>124.87</ele><time>2026-04-25T17:35:41Z</time></trkpt><trkpt lat="59.0430604387" lon="29.9766479060"><ele>124.52</ele><time>2026-04-25T17:35:53Z</time></trkpt><trkpt lat="59.0429471992" lon="29.9766226765"><ele>124.23</ele><time>2026-04-25T17:36:06Z</time></trkpt><trkpt lat="59.0428559203" lon="29.9765995424"><ele>124.30</ele><time>2026-04-25T17:36:19Z</time></trkpt><trkpt lat="59.0427978337" lon="29.9765557889"><ele>124.73</ele><time>2026-04-25T17:36:32Z</time></trkpt><trkpt lat="59.0427819919" lon="29.9765537772"><ele>124.50</ele><time>2026-04-25T17:36:36Z</time></trkpt><trkpt lat="59.0426917188" lon="29.9765531905"><ele>125.22</ele><time>2026-04-25T17:36:49Z</time></trkpt><trkpt lat="59.0426053014" lon="29.9765235186"><ele>125.87</ele><time>2026-04-25T17:37:00Z</time></trkpt><trkpt lat="59.0425833408" lon="29.9764881469"><ele>127.71</ele><time>2026-04-25T17:37:07Z</time></trkpt><trkpt lat="59.0425181296" lon="29.9765021447"><ele>126.71</ele><time>2026-04-25T17:37:26Z</time></trkpt><trkpt lat="59.0424180496" lon="29.9764784239"><ele>126.63</ele><time>2026-04-25T17:37:38Z</time></trkpt><trkpt lat="59.0424036328" lon="29.9764566310"><ele>126.49</ele><time>2026-04-25T17:38:09Z</time></trkpt><trkpt lat="59.0423680935" lon="29.9764399510"><ele>126.58</ele><time>2026-04-25T17:38:25Z</time></trkpt><trkpt lat="59.0422935784" lon="29.9763857201"><ele>125.57</ele><time>2026-04-25T17:38:39Z</time></trkpt><trkpt lat="59.0422035567" lon="29.9763270468"><ele>125.69</ele><time>2026-04-25T17:38:54Z</time></trkpt><trkpt lat="59.0421348251" lon="29.9762759171"><ele>126.01</ele><time>2026-04-25T17:39:06Z</time></trkpt><trkpt lat="59.0420463961" lon="29.9762457423"><ele>126.54</ele><time>2026-04-25T17:39:22Z</time></trkpt><trkpt lat="59.0419400297" lon="29.9762092810"><ele>127.19</ele><time>2026-04-25T17:39:35Z</time></trkpt><trkpt lat="59.0418633353" lon="29.9762038328"><ele>127.96</ele><time>2026-04-25T17:39:47Z</time></trkpt><trkpt lat="59.0417584777" lon="29.9761819560"><ele>127.98</ele><time>2026-04-25T17:40:01Z</time></trkpt><trkpt lat="59.0417402051" lon="29.9761646893"><ele>128.85</ele><time>2026-04-25T17:40:08Z</time></trkpt><trkpt lat="59.0417172387" lon="29.9761555530"><ele>126.94</ele><time>2026-04-25T17:40:32Z</time></trkpt><trkpt lat="59.0417433903" lon="29.9760661181"><ele>128.74</ele><time>2026-04-25T17:40:57Z</time></trkpt><trkpt lat="59.0417516883" lon="29.9759970512"><ele>125.69</ele><time>2026-04-25T17:41:05Z</time></trkpt><trkpt lat="59.0417329967" lon="29.9758701492"><ele>125.16</ele><time>2026-04-25T17:41:18Z</time></trkpt><trkpt lat="59.0416692942" lon="29.9755665567"><ele>125.29</ele><time>2026-04-25T17:41:54Z</time></trkpt><trkpt lat="59.0416927636" lon="29.9756927881"><ele>125.57</ele><time>2026-04-25T17:42:09Z</time></trkpt><trkpt lat="59.0417220164" lon="29.9759172555"><ele>125.97</ele><time>2026-04-25T17:42:24Z</time></trkpt><trkpt lat="59.0417286381" lon="29.9761321675"><ele>126.44</ele><time>2026-04-25T17:42:36Z</time></trkpt><trkpt lat="59.0417470783" lon="29.9762130529"><ele>126.31</ele><time>2026-04-25T17:42:50Z</time></trkpt><trkpt lat="59.0417340863" lon="29.9763057567"><ele>126.98</ele><time>2026-04-25T17:43:02Z</time></trkpt><trkpt lat="59.0417092759" lon="29.9763554614"><ele>126.18</ele><time>2026-04-25T17:43:19Z</time></trkpt><trkpt lat="59.0417099465" lon="29.9763541203"><ele>125.04</ele><time>2026-04-25T17:43:24Z</time></trkpt><trkpt lat="59.0416974574" lon="29.9763733987"><ele>121.91</ele><time>2026-04-25T17:44:08Z</time></trkpt><trkpt lat="59.0417246986" lon="29.9766005483"><ele>121.83</ele><time>2026-04-25T17:44:27Z</time></trkpt><trkpt lat="59.0417523589" lon="29.9766918272"><ele>121.65</ele><time>2026-04-25T17:44:40Z</time></trkpt><trkpt lat="59.0417529456" lon="29.9766957667"><ele>121.92</ele><time>2026-04-25T17:44:41Z</time></trkpt><trkpt lat="59.0417729784" lon="29.9769188929"><ele>122.08</ele><time>2026-04-25T17:44:55Z</time></trkpt><trkpt lat="59.0417954419" lon="29.9770661630"><ele>122.52</ele><time>2026-04-25T17:45:07Z</time></trkpt><trkpt lat="59.0418316517" lon="29.9773037899"><ele>123.05</ele><time>2026-04-25T17:45:22Z</time></trkpt><trkpt lat="59.0418632515" lon="29.9774933886"><ele>124.09</ele><time>2026-04-25T17:45:35Z</time></trkpt><trkpt lat="59.0418707952" lon="29.9776719231"><ele>124.74</ele><time>2026-04-25T17:45:48Z</time></trkpt><trkpt lat="59.0418888163" lon="29.9777837377"><ele>125.38</ele><time>2026-04-25T17:46:02Z</time></trkpt><trkpt lat="59.0419330727" lon="29.9779708218"><ele>126.27</ele><time>2026-04-25T17:46:18Z</time></trkpt><trkpt lat="59.0420282912" lon="29.9780250527"><ele>127.67</ele><time>2026-04-25T17:46:38Z</time></trkpt><trkpt lat="59.0421610605" lon="29.9780572392"><ele>128.58</ele><time>2026-04-25T17:46:57Z</time></trkpt><trkpt lat="59.0422359947" lon="29.9780476838"><ele>129.74</ele><time>2026-04-25T17:47:14Z</time></trkpt><trkpt lat="59.0423053969" lon="29.9780725781"><ele>130.56</ele><time>2026-04-25T17:47:28Z</time></trkpt><trkpt lat="59.0423824266" lon="29.9780719914"><ele>131.32</ele><time>2026-04-25T17:47:40Z</time></trkpt><trkpt lat="59.0424967557" lon="29.9781664554"><ele>132.59</ele><time>2026-04-25T17:48:00Z</time></trkpt><trkpt lat="59.0425882861" lon="29.9782556389"><ele>133.28</ele><time>2026-04-25T17:48:18Z</time></trkpt><trkpt lat="59.0426865220" lon="29.9782151543"><ele>134.27</ele><time>2026-04-25T17:48:32Z</time></trkpt><trkpt lat="59.0427713469" lon="29.9782112148"><ele>135.02</ele><time>2026-04-25T17:48:52Z</time></trkpt><trkpt lat="59.0428496338" lon="29.9782965425"><ele>135.92</ele><time>2026-04-25T17:49:09Z</time></trkpt><trkpt lat="59.0429337882" lon="29.9782964587"><ele>136.84</ele><time>2026-04-25T17:49:23Z</time></trkpt><trkpt lat="59.0430074651" lon="29.9783260468"><ele>136.85</ele><time>2026-04-25T17:49:43Z</time></trkpt><trkpt lat="59.0430457704" lon="29.9783075228"><ele>133.77</ele><time>2026-04-25T17:50:16Z</time></trkpt><trkpt lat="59.0430710837" lon="29.9783765059"><ele>132.26</ele><time>2026-04-25T17:50:39Z</time></trkpt><trkpt lat="59.0430668928" lon="29.9783813674"><ele>127.40</ele><time>2026-04-25T17:50:41Z</time></trkpt><trkpt lat="59.0430628695" lon="29.9783840496"><ele>123.55</ele><time>2026-04-25T17:50:48Z</time></trkpt><trkpt lat="59.0430412441" lon="29.9783748295"><ele>120.34</ele><time>2026-04-25T17:51:13Z</time></trkpt><trkpt lat="59.0430836566" lon="29.9783545453"><ele>117.03</ele><time>2026-04-25T17:51:36Z</time></trkpt><trkpt lat="59.0430991631" lon="29.9783219397"><ele>115.23</ele><time>2026-04-25T17:51:52Z</time></trkpt><trkpt lat="59.0431023482" lon="29.9783280585"><ele>110.82</ele><time>2026-04-25T17:51:55Z</time></trkpt><trkpt lat="59.0431058686" lon="29.9783332553"><ele>110.79</ele><time>2026-04-25T17:51:56Z</time></trkpt><trkpt lat="59.0431128256" lon="29.9783305731"><ele>113.82</ele><time>2026-04-25T17:52:02Z</time></trkpt><trkpt lat="59.0431097243" lon="29.9783296511"><ele>112.64</ele><time>2026-04-25T17:52:03Z</time></trkpt><trkpt lat="59.0431025997" lon="29.9783038348"><ele>112.14</ele><time>2026-04-25T17:53:04Z</time></trkpt><trkpt lat="59.0431160945" lon="29.9783201795"><ele>93.15</ele><time>2026-04-25T17:53:32Z</time></trkpt><trkpt lat="59.0431135800" lon="29.9783203471"><ele>91.91</ele><time>2026-04-25T17:53:35Z</time></trkpt><trkpt lat="59.0430838242" lon="29.9783428945"><ele>88.70</ele><time>2026-04-25T17:53:49Z</time></trkpt><trkpt lat="59.0430980735" lon="29.9784424715"><ele>85.04</ele><time>2026-04-25T17:54:18Z</time></trkpt><trkpt lat="59.0430995822" lon="29.9784007296"><ele>84.18</ele><time>2026-04-25T17:54:28Z</time></trkpt><trkpt lat="59.0431487001" lon="29.9783361051"><ele>83.43</ele><time>2026-04-25T17:54:47Z</time></trkpt><trkpt lat="59.0432239696" lon="29.9784661923"><ele>82.25</ele><time>2026-04-25T17:55:05Z</time></trkpt><trkpt lat="59.0433023404" lon="29.9784009811"><ele>81.82</ele><time>2026-04-25T17:55:18Z</time></trkpt><trkpt lat="59.0433897637" lon="29.9784785975"><ele>82.18</ele><time>2026-04-25T17:55:37Z</time></trkpt><trkpt lat="59.0435099602" lon="29.9785015639"><ele>82.68</ele><time>2026-04-25T17:55:52Z</time></trkpt><trkpt lat="59.0436216909" lon="29.9785005581"><ele>83.47</ele><time>2026-04-25T17:56:08Z</time></trkpt><trkpt lat="59.0436680429" lon="29.9784787651"><ele>89.28</ele><time>2026-04-25T17:56:15Z</time></trkpt><trkpt lat="59.0437135566" lon="29.9785292242"><ele>85.60</ele><time>2026-04-25T17:56:24Z</time></trkpt><trkpt lat="59.0438478347" lon="29.9785961956"><ele>84.29</ele><time>2026-04-25T17:56:43Z</time></trkpt><trkpt lat="59.0439880639" lon="29.9786292203"><ele>85.46</ele><time>2026-04-25T17:56:58Z</time></trkpt><trkpt lat="59.0440706257" lon="29.9785690382"><ele>86.60</ele><time>2026-04-25T17:57:13Z</time></trkpt><trkpt lat="59.0441566240" lon="29.9786062539"><ele>86.92</ele><time>2026-04-25T17:57:29Z</time></trkpt><trkpt lat="59.0441569593" lon="29.9786023982"><ele>88.35</ele><time>2026-04-25T17:57:40Z</time></trkpt><trkpt lat="59.0441443864" lon="29.9785938486"><ele>88.25</ele><time>2026-04-25T17:58:02Z</time></trkpt><trkpt lat="59.0442095976" lon="29.9787043221"><ele>88.76</ele><time>2026-04-25T17:58:17Z</time></trkpt><trkpt lat="59.0442791674" lon="29.9787316471"><ele>89.32</ele><time>2026-04-25T17:58:32Z</time></trkpt><trkpt lat="59.0443692729" lon="29.9787315633"><ele>89.98</ele><time>2026-04-25T17:58:43Z</time></trkpt><trkpt lat="59.0444474760" lon="29.9787868839"><ele>90.93</ele><time>2026-04-25T17:58:56Z</time></trkpt><trkpt lat="59.0445436165" lon="29.9788049888"><ele>92.75</ele><time>2026-04-25T17:59:13Z</time></trkpt><trkpt lat="59.0446300339" lon="29.9788225908"><ele>94.65</ele><time>2026-04-25T17:59:31Z</time></trkpt><trkpt lat="59.0447028726" lon="29.9788613990"><ele>96.30</ele><time>2026-04-25T17:59:48Z</time></trkpt><trkpt lat="59.0447684191" lon="29.9788445514"><ele>98.50</ele><time>2026-04-25T18:00:11Z</time></trkpt><trkpt lat="59.0448633861" lon="29.9788904842"><ele>99.88</ele><time>2026-04-25T18:00:26Z</time></trkpt><trkpt lat="59.0449195448" lon="29.9789063260"><ele>101.11</ele><time>2026-04-25T18:00:48Z</time></trkpt><trkpt lat="59.0449944790" lon="29.9788864609"><ele>101.41</ele><time>2026-04-25T18:01:00Z</time></trkpt><trkpt lat="59.0450170264" lon="29.9789262749"><ele>102.33</ele><time>2026-04-25T18:01:17Z</time></trkpt><trkpt lat="59.0450128354" lon="29.9790363293"><ele>103.24</ele><time>2026-04-25T18:01:36Z</time></trkpt><trkpt lat="59.0450310241" lon="29.9790514167"><ele>104.48</ele><time>2026-04-25T18:02:08Z</time></trkpt><trkpt lat="59.0450323652" lon="29.9789485708"><ele>105.12</ele><time>2026-04-25T18:02:23Z</time></trkpt><trkpt lat="59.0450310241" lon="29.9789172225"><ele>106.83</ele><time>2026-04-25T18:02:58Z</time></trkpt><trkpt lat="59.0450279228" lon="29.9789334834"><ele>106.75</ele><time>2026-04-25T18:03:33Z</time></trkpt><trkpt lat="59.0451090597" lon="29.9789857864"><ele>105.79</ele><time>2026-04-25T18:03:50Z</time></trkpt><trkpt lat="59.0452230535" lon="29.9789902288"><ele>105.88</ele><time>2026-04-25T18:04:19Z</time></trkpt><trkpt lat="59.0453444235" lon="29.9789792486"><ele>106.43</ele><time>2026-04-25T18:04:42Z</time></trkpt><trkpt lat="59.0454442520" lon="29.9790530931"><ele>107.60</ele><time>2026-04-25T18:05:01Z</time></trkpt><trkpt lat="59.0455360338" lon="29.9791272730"><ele>108.54</ele><time>2026-04-25T18:05:19Z</time></trkpt><trkpt lat="59.0456496924" lon="29.9791396782"><ele>108.74</ele><time>2026-04-25T18:05:32Z</time></trkpt><trkpt lat="59.0457160771" lon="29.9792016204"><ele>108.95</ele><time>2026-04-25T18:05:45Z</time></trkpt><trkpt lat="59.0457986388" lon="29.9791925680"><ele>109.57</ele><time>2026-04-25T18:05:59Z</time></trkpt><trkpt lat="59.0458767582" lon="29.9792338908"><ele>110.17</ele><time>2026-04-25T18:06:12Z</time></trkpt><trkpt lat="59.0459951945" lon="29.9792359862"><ele>108.25</ele><time>2026-04-25T18:06:27Z</time></trkpt><trkpt lat="59.0460262913" lon="29.9792610481"><ele>108.61</ele><time>2026-04-25T18:06:33Z</time></trkpt><trkpt lat="59.0461109485" lon="29.9793181289"><ele>108.58</ele><time>2026-04-25T18:06:44Z</time></trkpt><trkpt lat="59.0460752416" lon="29.9793716893"><ele>107.53</ele><time>2026-04-25T18:07:05Z</time></trkpt><trkpt lat="59.0461026505" lon="29.9793464597"><ele>105.62</ele><time>2026-04-25T18:07:33Z</time></trkpt><trkpt lat="59.0461741481" lon="29.9792804942"><ele>103.79</ele><time>2026-04-25T18:07:46Z</time></trkpt><trkpt lat="59.0462597273" lon="29.9793213978"><ele>103.32</ele><time>2026-04-25T18:08:00Z</time></trkpt><trkpt lat="59.0463214181" lon="29.9793327972"><ele>103.68</ele><time>2026-04-25T18:08:14Z</time></trkpt><trkpt lat="59.0463642497" lon="29.9792775605"><ele>103.82</ele><time>2026-04-25T18:08:35Z</time></trkpt><trkpt lat="59.0464670956" lon="29.9792914744"><ele>104.64</ele><time>2026-04-25T18:08:49Z</time></trkpt><trkpt lat="59.0465498250" lon="29.9794190470"><ele>105.54</ele><time>2026-04-25T18:09:08Z</time></trkpt><trkpt lat="59.0466659982" lon="29.9794716854"><ele>106.91</ele><time>2026-04-25T18:09:24Z</time></trkpt><trkpt lat="59.0467265993" lon="29.9794953223"><ele>107.29</ele><time>2026-04-25T18:09:36Z</time></trkpt><trkpt lat="59.0467928164" lon="29.9794992618"><ele>107.05</ele><time>2026-04-25T18:09:47Z</time></trkpt><trkpt lat="59.0468924772" lon="29.9795693345"><ele>106.93</ele><time>2026-04-25T18:10:01Z</time></trkpt><trkpt lat="59.0469678305" lon="29.9795291852"><ele>106.45</ele><time>2026-04-25T18:10:14Z</time></trkpt><trkpt lat="59.0470187925" lon="29.9795230664"><ele>105.32</ele><time>2026-04-25T18:10:28Z</time></trkpt><trkpt lat="59.0470650606" lon="29.9795509782"><ele>105.07</ele><time>2026-04-25T18:10:44Z</time></trkpt><trkpt lat="59.0470653959" lon="29.9795582704"><ele>101.30</ele><time>2026-04-25T18:10:58Z</time></trkpt><trkpt lat="59.0470628813" lon="29.9795782194"><ele>98.25</ele><time>2026-04-25T18:11:20Z</time></trkpt><trkpt lat="59.0470694192" lon="29.9795737769"><ele>97.19</ele><time>2026-04-25T18:11:22Z</time></trkpt><trkpt lat="59.0470850933" lon="29.9795682449"><ele>95.95</ele><time>2026-04-25T18:11:25Z</time></trkpt><trkpt lat="59.0471060481" lon="29.9795714300"><ele>92.69</ele><time>2026-04-25T18:11:38Z</time></trkpt><trkpt lat="59.0471647214" lon="29.9796304386"><ele>90.06</ele><time>2026-04-25T18:12:02Z</time></trkpt><trkpt lat="59.0472426731" lon="29.9796060473"><ele>89.63</ele><time>2026-04-25T18:12:19Z</time></trkpt><trkpt lat="59.0473134164" lon="29.9796287622"><ele>88.87</ele><time>2026-04-25T18:12:34Z</time></trkpt><trkpt lat="59.0473187808" lon="29.9796130881"><ele>90.71</ele><time>2026-04-25T18:12:50Z</time></trkpt><trkpt lat="59.0473417472" lon="29.9796431791"><ele>89.19</ele><time>2026-04-25T18:13:10Z</time></trkpt><trkpt lat="59.0474052820" lon="29.9796661455"><ele>88.85</ele><time>2026-04-25T18:13:31Z</time></trkpt><trkpt lat="59.0474908613" lon="29.9797234777"><ele>88.59</ele><time>2026-04-25T18:13:47Z</time></trkpt><trkpt lat="59.0475505404" lon="29.9796630442"><ele>88.42</ele><time>2026-04-25T18:13:57Z</time></trkpt><trkpt lat="59.0476010833" lon="29.9796847533"><ele>89.35</ele><time>2026-04-25T18:14:14Z</time></trkpt><trkpt lat="59.0476505365" lon="29.9797056243"><ele>89.82</ele><time>2026-04-25T18:14:37Z</time></trkpt><trkpt lat="59.0476460941" lon="29.9797399901"><ele>89.08</ele><time>2026-04-25T18:14:59Z</time></trkpt><trkpt lat="59.0476263966" lon="29.9797060434"><ele>88.82</ele><time>2026-04-25T18:15:22Z</time></trkpt><trkpt lat="59.0476122312" lon="29.9797283392"><ele>88.00</ele><time>2026-04-25T18:15:46Z</time></trkpt><trkpt lat="59.0476871654" lon="29.9797414988"><ele>88.42</ele><time>2026-04-25T18:16:02Z</time></trkpt><trkpt lat="59.0477299970" lon="29.9797417503"><ele>88.40</ele><time>2026-04-25T18:16:09Z</time></trkpt><trkpt lat="59.0477647819" lon="29.9798183609"><ele>88.60</ele><time>2026-04-25T18:16:22Z</time></trkpt><trkpt lat="59.0478340164" lon="29.9798751902"><ele>88.88</ele><time>2026-04-25T18:16:39Z</time></trkpt><trkpt lat="59.0479187574" lon="29.9799000844"><ele>89.09</ele><time>2026-04-25T18:16:58Z</time></trkpt><trkpt lat="59.0480117965" lon="29.9798763636"><ele>89.49</ele><time>2026-04-25T18:17:12Z</time></trkpt><trkpt lat="59.0480725653" lon="29.9798880983"><ele>90.66</ele><time>2026-04-25T18:17:29Z</time></trkpt><trkpt lat="59.0481191687" lon="29.9798487872"><ele>89.46</ele><time>2026-04-25T18:17:44Z</time></trkpt><trkpt lat="59.0481365193" lon="29.9798751902"><ele>89.35</ele><time>2026-04-25T18:18:23Z</time></trkpt><trkpt lat="59.0482050832" lon="29.9798949715"><ele>89.24</ele><time>2026-04-25T18:18:43Z</time></trkpt><trkpt lat="59.0482990444" lon="29.9799275771"><ele>89.65</ele><time>2026-04-25T18:18:56Z</time></trkpt><trkpt lat="59.0483742300" lon="29.9799301755"><ele>90.25</ele><time>2026-04-25T18:19:09Z</time></trkpt><trkpt lat="59.0484300535" lon="29.9799673911"><ele>91.03</ele><time>2026-04-25T18:19:23Z</time></trkpt><trkpt lat="59.0485063288" lon="29.9800261483"><ele>92.06</ele><time>2026-04-25T18:19:36Z</time></trkpt><trkpt lat="59.0485545248" lon="29.9800374638"><ele>92.24</ele><time>2026-04-25T18:19:53Z</time></trkpt><trkpt lat="59.0485620685" lon="29.9800402299"><ele>93.02</ele><time>2026-04-25T18:19:55Z</time></trkpt><trkpt lat="59.0485799219" lon="29.9800557364"><ele>92.88</ele><time>2026-04-25T18:19:59Z</time></trkpt><trkpt lat="59.0486271121" lon="29.9800532218"><ele>93.25</ele><time>2026-04-25T18:20:05Z</time></trkpt><trkpt lat="59.0487092547" lon="29.9800917786"><ele>92.80</ele><time>2026-04-25T18:20:17Z</time></trkpt><trkpt lat="59.0488080774" lon="29.9801643658"><ele>93.66</ele><time>2026-04-25T18:20:32Z</time></trkpt><trkpt lat="59.0488898847" lon="29.9802169204"><ele>94.10</ele><time>2026-04-25T18:20:46Z</time></trkpt><trkpt lat="59.0489759669" lon="29.9802409764"><ele>94.99</ele><time>2026-04-25T18:21:00Z</time></trkpt><trkpt lat="59.0490577742" lon="29.9802620988"><ele>95.66</ele><time>2026-04-25T18:21:14Z</time></trkpt><trkpt lat="59.0491497237" lon="29.9803065229"><ele>96.48</ele><time>2026-04-25T18:21:27Z</time></trkpt><trkpt lat="59.0492061339" lon="29.9803381227"><ele>97.07</ele><time>2026-04-25T18:21:37Z</time></trkpt><trkpt lat="59.0492360573" lon="29.9803471752"><ele>97.89</ele><time>2026-04-25T18:21:48Z</time></trkpt><trkpt lat="59.0492565930" lon="29.9803067744"><ele>97.61</ele><time>2026-04-25T18:22:13Z</time></trkpt><trkpt lat="59.0492841695" lon="29.9803377874"><ele>96.34</ele><time>2026-04-25T18:22:32Z</time></trkpt><trkpt lat="59.0493617859" lon="29.9803589936"><ele>95.35</ele><time>2026-04-25T18:22:45Z</time></trkpt><trkpt lat="59.0493943915" lon="29.9803664535"><ele>98.57</ele><time>2026-04-25T18:22:55Z</time></trkpt><trkpt lat="59.0493953973" lon="29.9803651962"><ele>99.25</ele><time>2026-04-25T18:22:57Z</time></trkpt><trkpt lat="59.0493969899" lon="29.9803715665"><ele>96.25</ele><time>2026-04-25T18:23:00Z</time></trkpt><trkpt lat="59.0494059585" lon="29.9803801998"><ele>94.61</ele><time>2026-04-25T18:23:03Z</time></trkpt><trkpt lat="59.0494250692" lon="29.9803886656"><ele>93.93</ele><time>2026-04-25T18:23:06Z</time></trkpt><trkpt lat="59.0494965669" lon="29.9803342670"><ele>92.66</ele><time>2026-04-25T18:23:19Z</time></trkpt><trkpt lat="59.0495575871" lon="29.9803531263"><ele>92.83</ele><time>2026-04-25T18:23:34Z</time></trkpt><trkpt lat="59.0495782904" lon="29.9803464208"><ele>89.73</ele><time>2026-04-25T18:23:37Z</time></trkpt><trkpt lat="59.0495850798" lon="29.9803375360"><ele>93.14</ele><time>2026-04-25T18:23:38Z</time></trkpt><trkpt lat="59.0495901927" lon="29.9803400505"><ele>93.21</ele><time>2026-04-25T18:23:39Z</time></trkpt><trkpt lat="59.0496528056" lon="29.9803699739"><ele>93.04</ele><time>2026-04-25T18:23:50Z</time></trkpt><trkpt lat="59.0497205313" lon="29.9803641904"><ele>93.14</ele><time>2026-04-25T18:24:01Z</time></trkpt><trkpt lat="59.0498073678" lon="29.9804009870"><ele>93.93</ele><time>2026-04-25T18:24:13Z</time></trkpt><trkpt lat="59.0498875827" lon="29.9804385379"><ele>92.74</ele><time>2026-04-25T18:24:26Z</time></trkpt><trkpt lat="59.0498923603" lon="29.9804365262"><ele>92.57</ele><time>2026-04-25T18:24:27Z</time></trkpt><trkpt lat="59.0499016643" lon="29.9804395437"><ele>94.60</ele><time>2026-04-25T18:24:29Z</time></trkpt><trkpt lat="59.0499105491" lon="29.9804328382"><ele>95.79</ele><time>2026-04-25T18:24:33Z</time></trkpt><trkpt lat="59.0499661211" lon="29.9804476742"><ele>95.29</ele><time>2026-04-25T18:24:51Z</time></trkpt><trkpt lat="59.0500017442" lon="29.9804530386"><ele>95.61</ele><time>2026-04-25T18:25:03Z</time></trkpt><trkpt lat="59.0500387922" lon="29.9804764241"><ele>95.86</ele><time>2026-04-25T18:25:14Z</time></trkpt><trkpt lat="59.0500843897" lon="29.9804906733"><ele>97.79</ele><time>2026-04-25T18:25:32Z</time></trkpt><trkpt lat="59.0500899218" lon="29.9804867338"><ele>96.02</ele><time>2026-04-25T18:26:08Z</time></trkpt><trkpt lat="59.0501156542" lon="29.9804766756"><ele>99.06</ele><time>2026-04-25T18:26:21Z</time></trkpt><trkpt lat="59.0501203481" lon="29.9804701377"><ele>98.56</ele><time>2026-04-25T18:26:40Z</time></trkpt><trkpt lat="59.0501178335" lon="29.9804730713"><ele>95.55</ele><time>2026-04-25T18:27:14Z</time></trkpt><trkpt lat="59.0501097869" lon="29.9804914277"><ele>93.45</ele><time>2026-04-25T18:27:27Z</time></trkpt><trkpt lat="59.0501985513" lon="29.9805277213"><ele>91.01</ele><time>2026-04-25T18:27:41Z</time></trkpt><trkpt lat="59.0502875671" lon="29.9805226922"><ele>89.26</ele><time>2026-04-25T18:27:54Z</time></trkpt><trkpt lat="59.0503826179" lon="29.9805562198"><ele>88.61</ele><time>2026-04-25T18:28:09Z</time></trkpt><trkpt lat="59.0504894871" lon="29.9805894960"><ele>88.11</ele><time>2026-04-25T18:28:25Z</time></trkpt><trkpt lat="59.0505711269" lon="29.9806645978"><ele>88.15</ele><time>2026-04-25T18:28:39Z</time></trkpt><trkpt lat="59.0506628249" lon="29.9806694593"><ele>88.50</ele><time>2026-04-25T18:28:51Z</time></trkpt><trkpt lat="59.0507058240" lon="29.9806924257"><ele>89.47</ele><time>2026-04-25T18:29:17Z</time></trkpt><trkpt lat="59.0507678501" lon="29.9807294738"><ele>90.09</ele><time>2026-04-25T18:29:30Z</time></trkpt><trkpt lat="59.0508263558" lon="29.9808078445"><ele>90.74</ele><time>2026-04-25T18:29:43Z</time></trkpt><trkpt lat="59.0509103425" lon="29.9808580521"><ele>91.53</ele><time>2026-04-25T18:29:56Z</time></trkpt><trkpt lat="59.0509620588" lon="29.9808836170"><ele>92.43</ele><time>2026-04-25T18:30:09Z</time></trkpt><trkpt lat="59.0510222409" lon="29.9808664341"><ele>93.60</ele><time>2026-04-25T18:30:22Z</time></trkpt><trkpt lat="59.0510934871" lon="29.9808929209"><ele>90.01</ele><time>2026-04-25T18:30:39Z</time></trkpt><trkpt lat="59.0510982648" lon="29.9808919989"><ele>90.00</ele><time>2026-04-25T18:30:40Z</time></trkpt><trkpt lat="59.0511075687" lon="29.9808916636"><ele>94.13</ele><time>2026-04-25T18:30:43Z</time></trkpt><trkpt lat="59.0511130169" lon="29.9808931723"><ele>94.28</ele><time>2026-04-25T18:30:44Z</time></trkpt><trkpt lat="59.0511420183" lon="29.9808891490"><ele>94.98</ele><time>2026-04-25T18:31:08Z</time></trkpt><trkpt lat="59.0511556808" lon="29.9809112772"><ele>93.28</ele><time>2026-04-25T18:31:31Z</time></trkpt><trkpt lat="59.0512161981" lon="29.9809258617"><ele>93.27</ele><time>2026-04-25T18:31:48Z</time></trkpt><trkpt lat="59.0512775537" lon="29.9809320644"><ele>92.83</ele><time>2026-04-25T18:32:06Z</time></trkpt><trkpt lat="59.0513326228" lon="29.9809717946"><ele>92.73</ele><time>2026-04-25T18:32:21Z</time></trkpt><trkpt lat="59.0513771307" lon="29.9809808470"><ele>93.02</ele><time>2026-04-25T18:32:33Z</time></trkpt><trkpt lat="59.0514161903" lon="29.9810505845"><ele>92.07</ele><time>2026-04-25T18:32:41Z</time></trkpt><trkpt lat="59.0514383186" lon="29.9810647499"><ele>93.64</ele><time>2026-04-25T18:32:46Z</time></trkpt><trkpt lat="59.0514831617" lon="29.9810816813"><ele>94.74</ele><time>2026-04-25T18:33:11Z</time></trkpt><trkpt lat="59.0515668970" lon="29.9811007921"><ele>94.63</ele><time>2026-04-25T18:33:23Z</time></trkpt><trkpt lat="59.0516086388" lon="29.9811683502"><ele>95.50</ele><time>2026-04-25T18:33:38Z</time></trkpt><trkpt lat="59.0516652167" lon="29.9812199827"><ele>96.10</ele><time>2026-04-25T18:34:03Z</time></trkpt><trkpt lat="59.0516832378" lon="29.9812435359"><ele>96.42</ele><time>2026-04-25T18:34:23Z</time></trkpt><trkpt lat="59.0517243929" lon="29.9812489841"><ele>97.09</ele><time>2026-04-25T18:34:46Z</time></trkpt><trkpt lat="59.0518339444" lon="29.9812882114"><ele>98.34</ele><time>2026-04-25T18:35:20Z</time></trkpt><trkpt lat="59.0518967248" lon="29.9812299572"><ele>98.66</ele><time>2026-04-25T18:35:35Z</time></trkpt><trkpt lat="59.0519529674" lon="29.9812428653"><ele>97.20</ele><time>2026-04-25T18:35:51Z</time></trkpt><trkpt lat="59.0520472638" lon="29.9812661670"><ele>98.61</ele><time>2026-04-25T18:36:07Z</time></trkpt><trkpt lat="59.0520723257" lon="29.9813375808"><ele>97.80</ele><time>2026-04-25T18:36:22Z</time></trkpt><trkpt lat="59.0521078650" lon="29.9812921509"><ele>96.55</ele><time>2026-04-25T18:37:04Z</time></trkpt><trkpt lat="59.0521098766" lon="29.9812914804"><ele>93.34</ele><time>2026-04-25T18:37:11Z</time></trkpt><trkpt lat="59.0521075297" lon="29.9812987726"><ele>92.01</ele><time>2026-04-25T18:37:14Z</time></trkpt><trkpt lat="59.0521003213" lon="29.9813843518"><ele>88.83</ele><time>2026-04-25T18:37:26Z</time></trkpt><trkpt lat="59.0521032549" lon="29.9814553466"><ele>85.75</ele><time>2026-04-25T18:37:48Z</time></trkpt><trkpt lat="59.0521255508" lon="29.9814053904"><ele>82.70</ele><time>2026-04-25T18:38:13Z</time></trkpt><trkpt lat="59.0522417240" lon="29.9814321287"><ele>81.51</ele><time>2026-04-25T18:38:47Z</time></trkpt><trkpt lat="59.0523325000" lon="29.9813642353"><ele>83.41</ele><time>2026-04-25T18:39:10Z</time></trkpt><trkpt lat="59.0523338411" lon="29.9813700188"><ele>79.97</ele><time>2026-04-25T18:39:11Z</time></trkpt><trkpt lat="59.0523513593" lon="29.9813630618"><ele>79.96</ele><time>2026-04-25T18:39:12Z</time></trkpt><trkpt lat="59.0523941908" lon="29.9813568592"><ele>82.23</ele><time>2026-04-25T18:39:17Z</time></trkpt><trkpt lat="59.0524787642" lon="29.9813938234"><ele>82.10</ele><time>2026-04-25T18:39:29Z</time></trkpt><trkpt lat="59.0526220109" lon="29.9814419355"><ele>82.08</ele><time>2026-04-25T18:39:47Z</time></trkpt><trkpt lat="59.0527110267" lon="29.9814811628"><ele>82.55</ele><time>2026-04-25T18:40:02Z</time></trkpt><trkpt lat="59.0528059937" lon="29.9815307837"><ele>82.86</ele><time>2026-04-25T18:40:17Z</time></trkpt><trkpt lat="59.0528911538" lon="29.9815376569"><ele>83.50</ele><time>2026-04-25T18:40:33Z</time></trkpt><trkpt lat="59.0529758949" lon="29.9815522414"><ele>83.61</ele><time>2026-04-25T18:40:48Z</time></trkpt><trkpt lat="59.0530600492" lon="29.9816055503"><ele>84.71</ele><time>2026-04-25T18:41:01Z</time></trkpt><trkpt lat="59.0531192254" lon="29.9816522375"><ele>86.66</ele><time>2026-04-25T18:41:14Z</time></trkpt><trkpt lat="59.0531212371" lon="29.9816425983"><ele>83.06</ele><time>2026-04-25T18:41:42Z</time></trkpt><trkpt lat="59.0531911422" lon="29.9816771317"><ele>81.40</ele><time>2026-04-25T18:41:57Z</time></trkpt><trkpt lat="59.0532920603" lon="29.9816688336"><ele>80.36</ele><time>2026-04-25T18:42:15Z</time></trkpt><trkpt lat="59.0533961635" lon="29.9817224778"><ele>79.87</ele><time>2026-04-25T18:42:32Z</time></trkpt><trkpt lat="59.0534722712" lon="29.9817275908"><ele>80.45</ele><time>2026-04-25T18:42:40Z</time></trkpt><trkpt lat="59.0536065493" lon="29.9817456957"><ele>80.15</ele><time>2026-04-25T18:42:57Z</time></trkpt><trkpt lat="59.0536889434" lon="29.9817772955"><ele>80.73</ele><time>2026-04-25T18:43:10Z</time></trkpt><trkpt lat="59.0537830722" lon="29.9818114936"><ele>81.74</ele><time>2026-04-25T18:43:24Z</time></trkpt><trkpt lat="59.0538686514" lon="29.9818267487"><ele>81.83</ele><time>2026-04-25T18:43:36Z</time></trkpt><trkpt lat="59.0540129878" lon="29.9818392377"><ele>83.25</ele><time>2026-04-25T18:43:53Z</time></trkpt><trkpt lat="59.0540263988" lon="29.9818381481"><ele>81.63</ele><time>2026-04-25T18:43:55Z</time></trkpt><trkpt lat="59.0540581662" lon="29.9818443507"><ele>83.03</ele><time>2026-04-25T18:43:59Z</time></trkpt><trkpt lat="59.0541290771" lon="29.9819015991"><ele>82.82</ele><time>2026-04-25T18:44:11Z</time></trkpt><trkpt lat="59.0541805420" lon="29.9819142558"><ele>83.30</ele><time>2026-04-25T18:44:33Z</time></trkpt><trkpt lat="59.0541778598" lon="29.9819156807"><ele>80.05</ele><time>2026-04-25T18:44:53Z</time></trkpt><trkpt lat="59.0541778598" lon="29.9819170218"><ele>79.92</ele><time>2026-04-25T18:44:54Z</time></trkpt><trkpt lat="59.0542678814" lon="29.9819256552"><ele>77.88</ele><time>2026-04-25T18:45:08Z</time></trkpt><trkpt lat="59.0543614235" lon="29.9819690734"><ele>77.28</ele><time>2026-04-25T18:45:21Z</time></trkpt><trkpt lat="59.0544662811" lon="29.9820417445"><ele>77.11</ele><time>2026-04-25T18:45:37Z</time></trkpt><trkpt lat="59.0544967912" lon="29.9820494559"><ele>77.76</ele><time>2026-04-25T18:45:54Z</time></trkpt><trkpt lat="59.0545256250" lon="29.9820483662"><ele>78.07</ele><time>2026-04-25T18:46:08Z</time></trkpt><trkpt lat="59.0545884892" lon="29.9820804689"><ele>78.92</ele><time>2026-04-25T18:46:22Z</time></trkpt><trkpt lat="59.0546706319" lon="29.9821033515"><ele>80.15</ele><time>2026-04-25T18:46:40Z</time></trkpt><trkpt lat="59.0548227634" lon="29.9821357895"><ele>81.94</ele><time>2026-04-25T18:46:58Z</time></trkpt><trkpt lat="59.0549445525" lon="29.9821833987"><ele>82.98</ele><time>2026-04-25T18:47:14Z</time></trkpt><trkpt lat="59.0550368372" lon="29.9821840692"><ele>84.55</ele><time>2026-04-25T18:47:35Z</time></trkpt><trkpt lat="59.0551280323" lon="29.9821696524"><ele>85.19</ele><time>2026-04-25T18:47:41Z</time></trkpt><trkpt lat="59.0552348178" lon="29.9822237995"><ele>85.95</ele><time>2026-04-25T18:47:54Z</time></trkpt><trkpt lat="59.0552677587" lon="29.9822406471"><ele>86.73</ele><time>2026-04-25T18:48:18Z</time></trkpt><trkpt lat="59.0553926490" lon="29.9822907709"><ele>87.11</ele><time>2026-04-25T18:48:35Z</time></trkpt><trkpt lat="59.0555038769" lon="29.9823469296"><ele>87.75</ele><time>2026-04-25T18:48:51Z</time></trkpt><trkpt lat="59.0555928927" lon="29.9823864922"><ele>88.97</ele><time>2026-04-25T18:49:05Z</time></trkpt><trkpt lat="59.0556723531" lon="29.9824290723"><ele>89.53</ele><time>2026-04-25T18:49:17Z</time></trkpt><trkpt lat="59.0557677392" lon="29.9824088719"><ele>90.56</ele><time>2026-04-25T18:49:31Z</time></trkpt><trkpt lat="59.0558671486" lon="29.9824607559"><ele>92.25</ele><time>2026-04-25T18:49:53Z</time></trkpt><trkpt lat="59.0559137519" lon="29.9824489374"><ele>94.23</ele><time>2026-04-25T18:50:24Z</time></trkpt><trkpt lat="59.0559695754" lon="29.9824496917"><ele>95.12</ele><time>2026-04-25T18:50:39Z</time></trkpt><trkpt lat="59.0560160950" lon="29.9823762663"><ele>96.83</ele><time>2026-04-25T18:51:12Z</time></trkpt><trkpt lat="59.0560025163" lon="29.9820815586"><ele>98.53</ele><time>2026-04-25T18:51:44Z</time></trkpt><trkpt lat="59.0559719224" lon="29.9819357973"><ele>99.81</ele><time>2026-04-25T18:52:00Z</time></trkpt><trkpt lat="59.0559741855" lon="29.9818996713"><ele>100.02</ele><time>2026-04-25T18:52:03Z</time></trkpt><trkpt lat="59.0560568310" lon="29.9818669818"><ele>101.34</ele><time>2026-04-25T18:52:16Z</time></trkpt><trkpt lat="59.0560936276" lon="29.9820606876"><ele>102.23</ele><time>2026-04-25T18:52:27Z</time></trkpt><trkpt lat="59.0560966451" lon="29.9820849951"><ele>102.15</ele><time>2026-04-25T18:52:28Z</time></trkpt><trkpt lat="59.0560951363" lon="29.9823085405"><ele>102.04</ele><time>2026-04-25T18:52:42Z</time></trkpt></trkseg></trk></gpx>